Time;durP1;ratioP1;P1;durP2;ratioP2;P2;SDS_P1;SDS_P2;PMS_P1;PMS_P2;Temp;Humidity;BMP_temperature;BMP_pressure;BME280_temperature;BME280_humidity;BME280_pressure;Samples;Min_cycle;Max_cycle;Signal;HPM_P1;HPM_P2
2022/08/25 00:01:13;;;;;;;11.50;3.90;;;;;;;19.91;52.94;99461.16;5062353;28;20021;-56
2022/08/25 00:03:39;;;;;;;9.18;3.92;;;;;;;19.72;53.87;99464.75;5066162;28;20178;-56
2022/08/25 00:06:05;;;;;;;10.13;4.10;;;;;;;19.59;54.77;99460.84;5069948;28;20032;-56
2022/08/25 00:08:33;;;;;;;12.10;4.47;;;;;;;19.33;56.06;99456.91;5069575;28;20044;-56
2022/08/25 00:10:59;;;;;;;17.23;3.85;;;;;;;19.26;55.33;99457.25;5070213;28;20213;-57
2022/08/25 00:13:25;;;;;;;13.00;4.13;;;;;;;19.18;56.37;99453.31;5070010;28;20490;-56
2022/08/25 00:15:50;;;;;;;9.70;3.78;;;;;;;19.29;55.69;99455.88;5070603;28;20025;-57
2022/08/25 00:18:16;;;;;;;11.82;3.90;;;;;;;19.46;53.96;99455.34;5066951;28;20032;-56
2022/08/25 00:20:41;;;;;;;12.10;4.15;;;;;;;19.25;54.83;99454.84;5056861;28;20497;-57
2022/08/25 00:23:07;;;;;;;10.15;3.75;;;;;;;19.24;54.71;99455.94;5060129;28;20082;-56
2022/08/25 00:25:32;;;;;;;7.82;4.07;;;;;;;19.31;55.54;99456.38;5063833;28;20077;-56
2022/08/25 00:27:58;;;;;;;6.45;3.90;;;;;;;19.33;55.13;99451.47;5056453;28;20071;-55
2022/08/25 00:30:23;;;;;;;9.57;3.97;;;;;;;19.34;56.34;99458.50;5069612;28;20047;-57
2022/08/25 00:32:48;;;;;;;8.20;3.67;;;;;;;19.35;54.96;99460.13;5066669;28;20029;-56
2022/08/25 00:35:14;;;;;;;7.78;4.07;;;;;;;19.33;57.04;99456.91;5063519;28;20028;-56
2022/08/25 00:37:40;;;;;;;7.70;3.72;;;;;;;19.35;55.52;99460.13;5061021;28;20639;-57
2022/08/25 00:40:06;;;;;;;7.82;4.30;;;;;;;19.49;54.80;99465.63;5066066;28;20123;-56
2022/08/25 00:42:35;;;;;;;7.95;3.60;;;;;;;19.40;56.49;99466.28;5055177;28;20090;-57
2022/08/25 00:45:01;;;;;;;6.28;4.13;;;;;;;19.42;55.83;99460.56;5070109;28;20036;-57
2022/08/25 00:47:26;;;;;;;13.73;4.13;;;;;;;19.38;55.40;99464.97;5069954;28;20043;-57
2022/08/25 00:49:54;;;;;;;6.63;3.95;;;;;;;19.43;55.42;99458.66;5065510;28;20043;-57
2022/08/25 00:52:27;;;;;;;14.88;4.50;;;;;;;19.36;55.78;99464.47;5051576;28;20033;-56
2022/08/25 00:54:55;;;;;;;13.20;4.80;;;;;;;19.23;55.90;99470.63;5066192;28;20110;-57
2022/08/25 00:57:27;;;;;;;8.80;4.20;;;;;;;19.32;55.60;99471.56;5064189;28;20048;-56
2022/08/25 00:59:52;;;;;;;11.88;4.53;;;;;;;19.35;55.33;99473.72;5068071;28;20016;-56
2022/08/25 01:02:18;;;;;;;17.85;4.85;;;;;;;19.17;56.45;99470.72;5063254;28;20475;-56
2022/08/25 01:04:44;;;;;;;11.05;4.20;;;;;;;19.22;56.30;99471.72;5059924;28;20041;-56
2022/08/25 01:07:09;;;;;;;8.25;3.97;;;;;;;19.27;56.40;99477.09;5070079;28;20028;-56
2022/08/25 01:09:35;;;;;;;10.43;4.25;;;;;;;19.25;56.33;99468.44;5059072;28;20083;-56
2022/08/25 01:12:00;;;;;;;12.15;4.13;;;;;;;19.15;57.31;99472.91;5048730;28;20025;-56
2022/08/25 01:14:26;;;;;;;9.85;4.25;;;;;;;19.02;56.89;99473.66;5070000;28;20032;-56
2022/08/25 01:16:52;;;;;;;7.05;4.13;;;;;;;18.98;57.51;99471.81;5068621;28;20539;-57
2022/08/25 01:19:18;;;;;;;9.60;4.30;;;;;;;19.08;55.81;99467.03;5065710;28;20036;-56
2022/08/25 01:21:45;;;;;;;8.60;3.85;;;;;;;19.23;55.61;99473.34;5049619;28;20471;-56
2022/08/25 01:24:15;;;;;;;10.13;3.97;;;;;;;19.18;55.66;99475.03;5052289;28;20029;-56
2022/08/25 01:26:40;;;;;;;11.02;4.80;;;;;;;19.03;56.70;99486.13;5066660;28;20138;-55
2022/08/25 01:29:24;;;;;;;9.52;4.72;;;;;;;18.84;57.49;99483.34;5059566;28;20032;-55
2022/08/25 01:31:57;;;;;;;8.23;4.22;;;;;;;18.68;58.37;99482.72;5072961;28;20032;-56
2022/08/25 01:34:25;;;;;;;10.77;4.18;;;;;;;18.64;58.66;99476.25;5066187;28;20543;-55
2022/08/25 01:36:51;;;;;;;9.55;4.68;;;;;;;18.69;58.83;99480.81;5066457;28;20029;-55
2022/08/25 01:39:16;;;;;;;11.20;4.22;;;;;;;18.60;58.03;99477.13;5066509;28;20032;-56
2022/08/25 01:41:49;;;;;;;7.53;4.40;;;;;;;18.69;58.04;99478.09;5063008;28;20390;-56
2022/08/25 01:44:15;;;;;;;10.73;4.40;;;;;;;18.64;58.48;99472.72;5059917;28;20120;-56
2022/08/25 01:46:41;;;;;;;8.07;4.22;;;;;;;18.48;59.08;99477.53;5054001;28;20694;-56
2022/08/25 01:49:06;;;;;;;9.55;3.90;;;;;;;18.36;59.12;99477.13;5056877;28;20025;-57
2022/08/25 01:51:34;;;;;;;13.63;4.22;;;;;;;18.57;58.39;99467.66;5051927;28;20033;-56
2022/08/25 01:53:59;;;;;;;7.78;3.72;;;;;;;18.84;57.99;99474.41;5032401;28;20033;-56
2022/08/25 01:56:25;;;;;;;11.18;4.20;;;;;;;18.70;58.47;99472.38;5068453;28;20029;-55
2022/08/25 01:58:50;;;;;;;9.55;3.97;;;;;;;18.61;58.97;99471.41;5069253;28;20035;-57
2022/08/25 02:01:19;;;;;;;8.05;3.90;;;;;;;18.46;59.19;99474.28;5068662;28;20037;-56
2022/08/25 02:03:46;;;;;;;7.40;3.70;;;;;;;18.28;60.94;99471.22;5068097;28;20501;-58
2022/08/25 02:06:18;;;;;;;9.27;4.20;;;;;;;17.94;61.56;99473.19;5062691;28;20508;-57
2022/08/25 02:08:44;;;;;;;8.60;4.10;;;;;;;18.20;60.53;99479.19;5055120;28;20049;-54
2022/08/25 02:11:11;;;;;;;8.60;3.97;;;;;;;18.23;59.76;99471.28;5067827;28;20024;-56
2022/08/25 02:13:37;;;;;;;9.20;3.45;;;;;;;18.26;59.08;99475.31;5056243;28;20021;-55
2022/08/25 02:16:02;;;;;;;7.78;3.55;;;;;;;18.55;58.26;99475.28;5068608;28;20044;-56
2022/08/25 02:18:28;;;;;;;9.77;3.80;;;;;;;18.70;57.58;99479.72;5067151;28;20036;-57
2022/08/25 02:20:53;;;;;;;6.80;3.80;;;;;;;18.84;57.47;99466.25;5092015;28;20029;-56
2022/08/25 02:23:19;;;;;;;8.00;3.45;;;;;;;18.83;57.31;99473.59;5060706;28;20033;-56
2022/08/25 02:25:47;;;;;;;10.88;4.07;;;;;;;18.19;59.79;99472.94;5065385;28;20115;-56
2022/08/25 02:28:13;;;;;;;7.30;4.10;;;;;;;18.05;60.75;99472.81;5063788;28;20071;-55
2022/08/25 02:30:39;;;;;;;9.65;4.25;;;;;;;17.78;61.72;99477.91;5062801;28;20363;-56
2022/08/25 02:33:05;;;;;;;8.75;4.47;;;;;;;17.48;62.59;99473.53;5068678;28;20078;-56
2022/08/25 02:35:31;;;;;;;10.73;4.28;;;;;;;17.50;62.38;99484.88;5066774;28;20382;-56
2022/08/25 02:37:56;;;;;;;10.38;4.35;;;;;;;17.33;63.14;99477.97;5072345;28;20082;-56
2022/08/25 02:40:22;;;;;;;8.27;3.80;;;;;;;17.46;63.53;99469.19;5058561;28;20521;-57
2022/08/25 02:42:48;;;;;;;9.95;3.92;;;;;;;17.52;63.73;99478.09;5062866;28;20016;-56
2022/08/25 02:45:14;;;;;;;7.75;4.28;;;;;;;17.69;61.63;99470.38;5067943;28;20479;-56
2022/08/25 02:47:40;;;;;;;15.98;3.97;;;;;;;17.71;62.02;99475.50;5072410;28;20028;-56
2022/08/25 02:50:06;;;;;;;10.50;3.97;;;;;;;17.40;62.88;99473.03;5070367;28;20039;-56
2022/08/25 02:52:31;;;;;;;14.18;3.72;;;;;;;17.43;63.96;99472.47;5065385;28;20039;-56
2022/08/25 02:54:57;;;;;;;14.20;3.97;;;;;;;17.19;63.59;99466.94;5071902;28;20100;-56
2022/08/25 02:57:22;;;;;;;18.02;4.30;;;;;;;17.09;63.76;99466.19;5061399;28;20079;-56
2022/08/25 02:59:48;;;;;;;9.85;4.00;;;;;;;16.94;65.24;99459.75;5065797;28;20016;-57
2022/08/25 03:02:15;;;;;;;7.20;3.67;;;;;;;17.06;64.62;99456.72;5071656;28;20051;-57
2022/08/25 03:04:41;;;;;;;7.70;4.00;;;;;;;17.25;63.60;99456.88;5065010;28;20056;-56
2022/08/25 03:07:06;;;;;;;9.40;4.00;;;;;;;17.31;63.76;99449.53;5070358;28;20082;-57
2022/08/25 03:09:32;;;;;;;6.97;3.70;;;;;;;17.40;63.08;99456.78;5065980;28;20036;-56
2022/08/25 03:11:57;;;;;;;10.05;3.67;;;;;;;17.40;64.44;99459.50;5065774;28;20025;-57
2022/08/25 03:14:23;;;;;;;12.45;3.75;;;;;;;17.29;63.44;99460.63;5064364;28;20017;-57
2022/08/25 03:16:48;;;;;;;13.52;4.07;;;;;;;17.14;62.76;99458.84;5055608;28;20471;-56
2022/08/25 03:19:14;;;;;;;13.82;3.90;;;;;;;17.12;63.15;99449.38;5070053;28;20029;-56
2022/08/25 03:21:39;;;;;;;10.70;4.28;;;;;;;17.24;62.32;99455.25;5067168;28;20029;-56
2022/08/25 03:24:08;;;;;;;19.20;3.67;;;;;;;17.31;62.13;99454.94;5072404;28;20025;-56
2022/08/25 03:29:17;;;;;;;17.98;4.63;;;;;;;17.35;62.06;99448.69;5054387;28;20056;-55
2022/08/25 03:31:43;;;;;;;14.45;4.15;;;;;;;17.39;62.74;99438.88;5069684;28;20020;-56
2022/08/25 03:34:10;;;;;;;13.05;3.88;;;;;;;17.45;62.85;99440.50;5065588;28;20499;-56
2022/08/25 03:36:35;;;;;;;10.48;4.00;;;;;;;17.43;62.40;99444.56;5065360;28;20082;-57
2022/08/25 03:39:00;;;;;;;14.32;3.70;;;;;;;17.33;62.41;99434.63;5066579;28;20021;-55
2022/08/25 03:41:28;;;;;;;8.80;4.20;;;;;;;16.98;64.32;99425.63;5071589;28;20173;-56
2022/08/25 03:43:54;;;;;;;14.00;4.57;;;;;;;16.85;64.79;99428.97;5071302;28;20017;-56
2022/08/25 03:46:24;;;;;;;9.75;3.90;;;;;;;16.97;64.18;99426.72;5070756;28;20027;-57
2022/08/25 03:48:50;;;;;;;11.77;4.15;;;;;;;17.10;64.49;99419.03;5071663;28;20025;-56
2022/08/25 03:51:24;;;;;;;11.65;4.18;;;;;;;17.13;63.30;99423.94;5066851;28;20032;-56
2022/08/25 03:53:49;;;;;;;12.60;4.30;;;;;;;17.09;64.21;99423.66;5070092;28;20038;-56
2022/08/25 03:56:15;;;;;;;11.32;3.92;;;;;;;16.92;64.30;99420.50;5094145;28;20119;-58
2022/08/25 03:58:40;;;;;;;17.90;4.50;;;;;;;17.13;63.29;99419.31;5060343;28;20063;-56
2022/08/25 04:01:06;;;;;;;10.18;4.60;;;;;;;17.06;63.79;99420.72;5061385;28;20017;-56
2022/08/25 04:03:31;;;;;;;10.23;3.88;;;;;;;16.87;64.13;99417.84;5060383;28;20032;-56
2022/08/25 04:06:01;;;;;;;16.08;4.47;;;;;;;16.77;65.08;99418.66;5069345;28;20048;-55
2022/08/25 04:08:26;;;;;;;8.17;4.20;;;;;;;16.52;66.19;99414.19;5070889;28;20043;-56
2022/08/25 04:10:51;;;;;;;14.18;4.65;;;;;;;16.63;66.22;99423.09;5063101;28;20289;-56
2022/08/25 04:13:17;;;;;;;10.43;4.70;;;;;;;16.80;67.10;99426.28;5061372;28;20087;-56
2022/08/25 04:15:42;;;;;;;8.63;4.40;;;;;;;16.84;66.43;99427.31;5063930;28;20483;-56
2022/08/25 04:18:10;;;;;;;16.08;4.28;;;;;;;16.61;66.09;99429.56;5064690;28;20027;-56
2022/08/25 04:20:36;;;;;;;11.48;4.50;;;;;;;16.61;66.56;99429.56;5064860;28;20075;-55
2022/08/25 04:23:01;;;;;;;13.23;4.82;;;;;;;16.75;66.43;99434.41;5070900;28;20078;-56
2022/08/25 04:25:27;;;;;;;14.32;4.05;;;;;;;16.72;66.52;99434.94;5066514;28;20422;-56
2022/08/25 04:27:54;;;;;;;10.27;4.38;;;;;;;16.59;66.26;99426.31;5070189;28;20039;-54
2022/08/25 04:30:19;;;;;;;18.27;4.85;;;;;;;16.81;68.59;99430.59;5065729;28;20033;-55
2022/08/25 04:32:47;;;;;;;15.82;4.45;;;;;;;16.68;68.13;99423.06;5065323;28;20032;-58
2022/08/25 04:35:12;;;;;;;11.93;4.18;;;;;;;16.67;66.74;99426.84;5069151;28;20048;-55
2022/08/25 04:37:37;;;;;;;9.25;4.47;;;;;;;16.58;66.21;99419.31;5069969;28;20537;-56
2022/08/25 04:40:06;;;;;;;10.60;4.57;;;;;;;16.46;67.12;99426.13;5070635;28;20025;-55
2022/08/25 04:42:32;;;;;;;11.43;4.45;;;;;;;16.60;67.72;99433.38;5065270;28;20025;-56
2022/08/25 04:44:59;;;;;;;14.55;4.50;;;;;;;16.65;66.53;99429.00;5070195;28;20048;-56
2022/08/25 04:47:25;;;;;;;16.33;4.90;;;;;;;17.31;63.96;99439.50;5056984;28;20422;-57
2022/08/25 04:49:50;;;;;;;11.43;4.30;;;;;;;18.00;61.23;99436.81;5065856;28;20123;-54
2022/08/25 04:52:16;;;;;;;10.80;4.50;;;;;;;18.71;60.88;99446.84;5070317;28;20498;-56
2022/08/25 04:54:41;;;;;;;10.95;4.85;;;;;;;18.16;61.93;99430.13;5064639;28;20536;-56
2022/08/25 04:57:07;;;;;;;22.17;4.72;;;;;;;18.68;60.28;99439.28;5065225;28;20422;-57
2022/08/25 04:59:32;;;;;;;9.77;5.38;;;;;;;19.55;56.95;99440.78;5068629;28;20030;-57
2022/08/25 05:02:01;;;;;;;17.27;4.80;;;;;;;20.23;54.88;99439.34;5059001;28;20023;-56
2022/08/25 05:04:26;;;;;;;12.68;4.75;;;;;;;21.44;51.17;99438.19;5061399;28;20118;-56
2022/08/25 05:06:51;;;;;;;16.42;5.10;;;;;;;21.96;49.72;99436.59;5066525;28;20418;-56
2022/08/25 05:09:17;;;;;;;16.17;5.05;;;;;;;22.83;48.39;99433.41;5065239;28;20391;-56
2022/08/25 05:11:42;;;;;;;14.23;5.35;;;;;;;23.07;47.10;99440.41;5067595;28;20205;-56
2022/08/25 05:14:10;;;;;;;11.70;4.15;;;;;;;23.15;47.03;99442.31;5069901;28;20056;-56
2022/08/25 05:16:39;;;;;;;17.63;4.45;;;;;;;23.13;46.28;99436.38;5066366;28;20481;-56
2022/08/25 05:19:05;;;;;;;13.50;4.57;;;;;;;22.63;46.76;99431.28;5062610;28;20031;-57
2022/08/25 05:21:31;;;;;;;19.35;4.68;;;;;;;23.16;45.85;99433.00;5069398;28;20029;-56
2022/08/25 05:23:56;;;;;;;18.08;5.22;;;;;;;24.01;44.41;99429.69;5062717;28;20028;-57
2022/08/25 05:26:22;;;;;;;12.45;4.40;;;;;;;24.72;43.16;99434.56;5063749;28;20033;-57
2022/08/25 05:28:49;;;;;;;13.60;4.82;;;;;;;25.83;41.24;99425.75;5063410;28;20501;-56
2022/08/25 05:31:14;;;;;;;21.42;4.65;;;;;;;25.42;41.50;99432.13;5069114;28;20462;-56
2022/08/25 05:33:40;;;;;;;14.95;4.53;;;;;;;25.34;41.57;99436.56;5069018;28;20021;-56
2022/08/25 05:36:06;;;;;;;11.05;4.68;;;;;;;25.96;39.96;99426.59;5067271;28;20024;-57
2022/08/25 05:38:31;;;;;;;11.55;4.10;;;;;;;27.17;38.75;99428.84;5062982;28;20037;-56
2022/08/25 05:41:11;;;;;;;15.52;4.45;;;;;;;27.25;37.80;99435.38;5069324;28;20103;-57
2022/08/25 05:43:38;;;;;;;11.23;4.43;;;;;;;26.69;39.35;99427.81;5068170;28;20027;-57
2022/08/25 05:46:04;;;;;;;10.55;4.43;;;;;;;26.80;38.58;99428.91;5051084;28;20056;-57
2022/08/25 05:48:29;;;;;;;12.75;5.07;;;;;;;27.46;37.27;99421.44;5061004;28;20428;-57
2022/08/25 05:50:56;;;;;;;12.00;5.07;;;;;;;26.60;38.72;99418.88;5067182;28;20058;-56
2022/08/25 05:53:22;;;;;;;10.70;4.55;;;;;;;26.55;38.66;99421.84;5057293;28;20025;-57
2022/08/25 05:55:49;;;;;;;14.95;4.75;;;;;;;28.59;35.38;99419.25;5069117;28;20540;-57
2022/08/25 05:58:14;;;;;;;11.93;4.72;;;;;;;28.52;35.40;99411.59;5065045;28;20116;-57
2022/08/25 06:00:39;;;;;;;10.18;4.90;;;;;;;27.97;36.96;99410.63;5060727;28;20115;-57
2022/08/25 06:03:05;;;;;;;15.10;7.13;;;;;;;28.28;35.71;99411.75;5057816;28;20025;-57
2022/08/25 06:05:31;;;;;;;25.67;14.50;;;;;;;28.76;35.70;99420.81;5061826;28;20496;-57
2022/08/25 06:07:56;;;;;;;46.85;26.63;;;;;;;28.11;35.95;99423.97;5061419;28;20239;-57
2022/08/25 06:10:22;;;;;;;37.08;18.33;;;;;;;27.87;36.52;99424.91;5068319;28;20139;-57
2022/08/25 06:12:48;;;;;;;25.23;14.18;;;;;;;28.76;34.58;99426.31;5073534;28;20033;-57
2022/08/25 06:15:16;;;;;;;25.45;13.07;;;;;;;29.68;33.44;99426.69;5069254;28;20025;-57
2022/08/25 06:17:42;;;;;;;26.05;10.57;;;;;;;29.91;33.17;99429.47;5071505;28;20035;-57
2022/08/25 06:20:09;;;;;;;23.30;10.55;;;;;;;29.11;34.93;99431.06;5070568;28;20029;-57
2022/08/25 06:22:36;;;;;;;25.60;11.18;;;;;;;29.26;34.91;99432.94;5064069;28;20020;-57
2022/08/25 06:25:02;;;;;;;28.30;9.57;;;;;;;29.24;34.71;99438.03;5068964;28;20039;-57
2022/08/25 06:27:28;;;;;;;21.35;7.78;;;;;;;29.35;34.41;99428.00;5073486;28;20070;-57
2022/08/25 06:29:53;;;;;;;27.40;7.68;;;;;;;29.40;34.77;99433.22;5058135;28;20032;-57
2022/08/25 06:32:18;;;;;;;33.35;7.50;;;;;;;29.59;33.92;99440.69;5065720;28;20055;-57
2022/08/25 06:34:44;;;;;;;30.50;7.15;;;;;;;29.64;33.98;99436.84;5069346;28;20511;-57
2022/08/25 06:37:09;;;;;;;37.88;6.53;;;;;;;29.34;34.11;99431.13;5094026;28;20024;-57
2022/08/25 06:39:35;;;;;;;28.25;6.35;;;;;;;29.41;34.19;99436.78;5070331;28;20090;-57
2022/08/25 06:42:00;;;;;;;21.95;5.65;;;;;;;30.24;33.23;99437.19;5072585;28;20443;-56
2022/08/25 06:44:26;;;;;;;17.73;5.95;;;;;;;29.62;33.55;99430.88;5067655;28;20531;-57
2022/08/25 06:46:52;;;;;;;24.88;5.22;;;;;;;30.04;33.45;99428.13;5056588;28;20036;-57
2022/08/25 06:49:17;;;;;;;21.85;5.70;;;;;;;30.07;33.43;99426.59;5072364;28;20024;-56
2022/08/25 06:51:43;;;;;;;30.23;6.80;;;;;;;30.23;33.17;99423.69;5061985;28;20025;-57
2022/08/25 06:54:11;;;;;;;33.28;6.85;;;;;;;30.13;33.11;99424.31;5063304;28;20402;-56
2022/08/25 06:56:36;;;;;;;26.90;6.15;;;;;;;30.98;32.27;99422.13;5057503;28;20475;-57
2022/08/25 06:59:02;;;;;;;31.45;6.13;;;;;;;30.07;33.21;99426.59;5068043;28;20059;-57
2022/08/25 07:01:28;;;;;;;28.17;5.90;;;;;;;30.85;32.51;99429.03;5065628;28;20146;-57
2022/08/25 07:03:56;;;;;;;34.15;6.22;;;;;;;31.07;32.32;99425.38;5071806;28;20119;-57
2022/08/25 07:06:21;;;;;;;25.13;5.65;;;;;;;30.99;32.73;99437.53;5059815;28;20040;-56
2022/08/25 07:08:47;;;;;;;34.08;6.15;;;;;;;30.52;32.84;99431.28;5055015;28;20043;-57
2022/08/25 07:11:13;;;;;;;37.78;6.85;;;;;;;31.58;31.36;99430.38;5061979;28;20021;-57
2022/08/25 07:13:39;;;;;;;37.90;6.78;;;;;;;30.77;32.58;99435.63;5068108;28;20073;-57
2022/08/25 07:16:05;;;;;;;31.25;6.82;;;;;;;30.73;32.55;99436.38;5068158;28;20103;-57
2022/08/25 07:18:30;;;;;;;33.03;6.10;;;;;;;30.89;32.35;99429.88;5068759;28;20428;-56
2022/08/25 07:20:56;;;;;;;41.72;6.68;;;;;;;31.34;31.87;99425.31;5064753;28;20422;-57
2022/08/25 07:23:22;;;;;;;45.88;7.45;;;;;;;31.53;31.99;99427.94;5055088;28;20025;-56
2022/08/25 07:25:47;;;;;;;38.85;7.22;;;;;;;31.31;32.60;99426.09;5054751;28;20286;-56
2022/08/25 07:28:14;;;;;;;71.47;8.20;;;;;;;31.64;31.95;99432.81;5068276;28;20037;-55
2022/08/25 07:30:39;;;;;;;48.95;6.88;;;;;;;31.29;31.97;99429.22;5071196;28;20029;-56
2022/08/25 07:33:05;;;;;;;46.88;6.97;;;;;;;31.49;32.52;99432.63;5071879;28;20099;-56
2022/08/25 07:35:31;;;;;;;34.92;7.65;;;;;;;31.95;32.02;99418.50;5065372;28;20036;-55
2022/08/25 07:37:56;;;;;;;44.50;7.47;;;;;;;30.57;33.58;99430.19;5059000;28;20021;-56
2022/08/25 07:40:24;;;;;;;34.53;6.60;;;;;;;31.00;33.60;99422.50;5063351;28;20097;-56
2022/08/25 07:42:51;;;;;;;33.08;7.07;;;;;;;31.76;32.28;99427.78;5066064;28;20040;-55
2022/08/25 07:45:17;;;;;;;22.65;6.35;;;;;;;31.21;32.93;99427.53;5061372;28;20399;-56
2022/08/25 07:47:43;;;;;;;30.85;6.22;;;;;;;31.49;33.12;99427.09;5070140;28;20103;-56
2022/08/25 07:50:09;;;;;;;19.60;6.82;;;;;;;31.92;32.67;99433.09;5066406;28;20025;-56
2022/08/25 07:52:34;;;;;;;34.28;5.78;;;;;;;29.91;35.21;99431.44;5064842;28;20017;-56
2022/08/25 07:55:00;;;;;;;30.48;7.30;;;;;;;29.49;35.87;99441.28;5063671;28;20037;-56
2022/08/25 07:57:27;;;;;;;24.35;6.13;;;;;;;28.93;36.96;99428.69;5067439;28;20384;-56
2022/08/25 07:59:53;;;;;;;29.17;6.53;;;;;;;29.95;36.15;99424.00;5063641;28;20164;-55
2022/08/25 08:02:18;;;;;;;31.70;6.70;;;;;;;30.43;35.34;99421.66;5069121;28;20032;-56
2022/08/25 08:04:44;;;;;;;31.52;6.10;;;;;;;31.13;34.78;99415.59;5070106;28;20047;-55
2022/08/25 08:07:10;;;;;;;18.15;6.07;;;;;;;30.81;34.89;99426.19;5064231;28;20028;-56
2022/08/25 08:09:35;;;;;;;24.65;7.00;;;;;;;29.46;37.13;99426.25;5067040;28;20025;-58
2022/08/25 08:12:01;;;;;;;34.28;6.60;;;;;;;30.88;35.32;99425.53;5058555;28;20058;-57
2022/08/25 08:14:27;;;;;;;26.30;6.10;;;;;;;30.90;35.13;99421.22;5061906;28;20111;-56
2022/08/25 08:16:52;;;;;;;32.83;7.25;;;;;;;31.62;34.40;99424.06;5054143;28;20019;-56
2022/08/25 08:19:18;;;;;;;22.08;6.53;;;;;;;31.77;34.51;99425.81;5053594;28;20029;-56
2022/08/25 08:21:45;;;;;;;28.15;7.35;;;;;;;31.34;34.71;99426.09;5086957;28;20027;-56
2022/08/25 08:24:10;;;;;;;25.05;6.30;;;;;;;31.47;35.00;99412.84;5070444;28;20036;-54
2022/08/25 08:26:36;;;;;;;36.05;7.32;;;;;;;32.19;34.11;99414.34;5063092;28;20020;-55
2022/08/25 08:29:01;;;;;;;39.28;7.32;;;;;;;32.04;34.30;99411.84;5062013;28;20032;-55
2022/08/25 08:31:27;;;;;;;30.30;6.97;;;;;;;32.52;33.81;99411.84;5069939;28;20144;-55
2022/08/25 08:33:53;;;;;;;26.05;6.68;;;;;;;31.57;35.71;99406.59;5069129;28;20366;-54
2022/08/25 08:36:21;;;;;;;29.65;7.47;;;;;;;32.15;34.29;99401.63;5063305;28;20438;-55
2022/08/25 08:38:47;;;;;;;38.17;7.00;;;;;;;32.29;34.36;99396.19;5061112;28;20039;-55
2022/08/25 08:44:36;;;;;;;30.50;6.40;;;;;;;31.56;35.56;99384.84;5064990;28;20039;-54
2022/08/25 08:47:15;;;;;;;24.58;7.05;;;;;;;32.85;33.39;99385.88;5058192;28;20056;-55
2022/08/25 08:50:06;;;;;;;40.88;7.68;;;;;;;32.25;34.35;99387.03;5066643;28;20035;-54
2022/08/25 08:53:03;;;;;;;40.40;8.13;;;;;;;29.37;39.58;99378.75;5069951;28;20032;-54
2022/08/25 08:55:47;;;;;;;19.85;6.53;;;;;;;29.70;39.38;99382.13;5076607;28;20029;-54
2022/08/25 08:58:17;;;;;;;15.30;6.00;;;;;;;29.99;39.11;99369.63;5065144;28;20029;-56
2022/08/25 09:00:50;;;;;;;11.40;5.57;;;;;;;29.93;39.38;99371.06;5054076;28;20074;-55
2022/08/25 09:03:26;;;;;;;13.82;5.55;;;;;;;30.22;38.62;99375.09;5083250;28;20036;-54
2022/08/25 09:05:54;;;;;;;11.95;6.03;;;;;;;29.25;40.28;99370.63;5064779;28;20090;-55
2022/08/25 09:08:19;;;;;;;9.45;6.20;;;;;;;28.77;41.53;99362.53;5061862;28;20064;-56
2022/08/25 09:11:02;;;;;;;12.20;6.45;;;;;;;29.56;39.83;99357.81;5069662;28;20028;-56
2022/08/25 09:13:35;;;;;;;10.13;6.00;;;;;;;29.85;39.52;99354.41;5068669;28;20048;-56
2022/08/25 09:19:03;;;;;;;8.20;6.00;;;;;;;31.01;37.33;99352.16;5069962;28;20047;-56
2022/08/25 09:21:34;;;;;;;12.48;5.45;;;;;;;31.67;36.30;99348.94;5058265;28;20423;-55
2022/08/25 09:24:28;;;;;;;8.98;5.63;;;;;;;30.25;37.30;99361.41;5066498;28;20032;-56
2022/08/25 09:27:04;;;;;;;8.68;5.28;;;;;;;29.72;38.40;99341.94;5068408;28;20036;-56
2022/08/25 09:29:41;;;;;;;8.13;5.25;;;;;;;29.98;37.77;99343.13;5057956;28;20432;-55
2022/08/25 09:32:06;;;;;;;10.52;5.65;;;;;;;31.68;35.98;99345.00;5082734;28;20096;-56
2022/08/25 09:34:33;;;;;;;10.57;5.50;;;;;;;31.26;36.54;99338.63;5090600;28;20040;-55
2022/08/25 09:36:59;;;;;;;13.65;6.10;;;;;;;30.81;37.48;99347.94;5067739;28;20333;-56
2022/08/25 09:39:24;;;;;;;16.45;5.93;;;;;;;31.08;37.00;99340.41;5066198;28;20112;-56
2022/08/25 09:41:57;;;;;;;13.48;6.00;;;;;;;31.98;35.92;99337.38;5062667;28;20119;-55
2022/08/25 09:44:25;;;;;;;9.95;6.00;;;;;;;32.90;34.12;99343.06;5078511;28;20036;-55
2022/08/25 09:47:13;;;;;;;13.77;6.10;;;;;;;32.44;34.62;99336.88;5060349;28;20422;-55
2022/08/25 09:49:41;;;;;;;11.45;6.50;;;;;;;30.44;37.31;99321.75;5052344;28;20390;-55
2022/08/25 09:52:25;;;;;;;17.27;5.97;;;;;;;31.31;36.03;99315.34;5069289;28;20078;-55
2022/08/25 09:54:51;;;;;;;16.98;6.30;;;;;;;31.46;35.93;99316.31;5062725;28;20028;-56
2022/08/25 09:57:30;;;;;;;7.18;5.30;;;;;;;32.72;34.08;99307.72;5064486;28;20622;-55
2022/08/25 09:59:55;;;;;;;8.63;5.57;;;;;;;33.31;33.04;99310.31;5058003;28;20476;-55
2022/08/25 10:02:28;;;;;;;10.38;5.80;;;;;;;31.04;35.77;99300.81;5054371;28;20056;-55
2022/08/25 10:04:53;;;;;;;9.55;5.00;;;;;;;29.73;37.59;99304.06;5096072;28;20522;-56
2022/08/25 10:07:24;;;;;;;9.25;5.57;;;;;;;29.85;38.31;99301.09;5067240;28;20036;-55
2022/08/25 10:09:58;;;;;;;8.75;5.20;;;;;;;31.44;35.36;99290.97;5064022;28;20212;-55
2022/08/25 10:12:39;;;;;;;14.65;5.57;;;;;;;32.09;34.27;99292.28;5057761;28;20107;-55
2022/08/25 10:15:20;;;;;;;13.90;5.95;;;;;;;31.58;35.29;99289.13;5067518;28;20028;-55
2022/08/25 10:17:45;;;;;;;17.08;5.40;;;;;;;31.38;36.30;99291.31;5058573;28;20335;-55
2022/08/25 10:20:14;;;;;;;8.98;5.28;;;;;;;32.02;35.02;99284.72;5067958;28;20395;-55
2022/08/25 10:22:40;;;;;;;8.07;5.50;;;;;;;31.61;34.98;99286.75;5063549;28;20066;-55
2022/08/25 10:25:08;;;;;;;9.45;5.93;;;;;;;32.91;33.39;99286.38;5064085;28;20021;-55
2022/08/25 10:27:52;;;;;;;15.23;5.47;;;;;;;33.85;32.62;99277.81;5065816;28;20017;-56
2022/08/25 10:30:35;;;;;;;11.20;5.30;;;;;;;32.32;33.92;99273.41;5054029;28;20037;-56
2022/08/25 10:33:51;;;;;;;8.13;5.80;;;;;;;31.57;35.04;99283.94;5090372;28;20447;-56
2022/08/25 10:36:40;;;;;;;9.88;5.50;;;;;;;32.33;33.34;99274.22;5025546;28;20084;-56
2022/08/25 10:39:06;;;;;;;11.55;5.82;;;;;;;32.32;33.59;99276.19;5042288;28;20057;-56
2022/08/25 10:41:35;;;;;;;7.97;5.13;;;;;;;30.76;34.42;99268.03;5062657;28;20444;-55
2022/08/25 10:47:37;;;;;;;12.88;5.80;;;;;;;31.65;33.77;99268.19;5068812;28;20040;-55
2022/08/25 10:50:13;;;;;;;8.68;5.30;;;;;;;32.00;33.86;99260.19;5072489;28;20036;-55
2022/08/25 10:53:00;;;;;;;13.32;5.35;;;;;;;31.73;33.81;99251.25;5065120;28;20016;-55
2022/08/25 10:55:34;;;;;;;12.40;5.32;;;;;;;31.07;32.91;99251.00;5060987;28;20021;-55
2022/08/25 10:58:09;;;;;;;13.25;5.60;;;;;;;32.36;31.63;99245.72;5060870;28;20069;-55
2022/08/25 11:00:42;;;;;;;15.52;5.00;;;;;;;32.42;32.63;99244.94;5071128;28;20037;-54
2022/08/25 11:03:16;;;;;;;10.73;5.22;;;;;;;32.04;32.74;99240.00;5072344;28;20033;-54
2022/08/25 11:05:46;;;;;;;10.68;6.20;;;;;;;32.04;33.80;99251.09;5071432;28;20515;-55
2022/08/25 11:08:41;;;;;;;9.43;5.90;;;;;;;29.43;37.35;99244.78;5070799;28;20169;-54
2022/08/25 11:11:32;;;;;;;9.48;5.80;;;;;;;30.50;35.92;99242.03;5064581;28;20068;-54
2022/08/25 11:13:58;;;;;;;9.18;5.93;;;;;;;32.34;32.99;99243.31;5064238;28;20029;-54
2022/08/25 11:16:50;;;;;;;11.35;5.20;;;;;;;31.51;32.88;99241.19;5067974;28;20102;-54
2022/08/25 11:19:19;;;;;;;11.98;5.20;;;;;;;31.84;32.69;99242.22;5057447;28;20115;-54
2022/08/25 11:22:12;;;;;;;11.95;5.43;;;;;;;31.48;32.33;99237.19;5086665;28;20021;-55
2022/08/25 11:24:59;;;;;;;10.57;5.20;;;;;;;31.08;32.84;99238.00;5094832;28;20044;-55
2022/08/25 11:27:54;;;;;;;11.43;4.97;;;;;;;31.10;33.29;99230.91;5065494;28;20056;-55
2022/08/25 11:30:19;;;;;;;8.10;4.53;;;;;;;30.38;33.94;99226.50;5059178;28;20052;-54
2022/08/25 11:32:49;;;;;;;11.73;5.65;;;;;;;30.89;33.25;99230.66;5064255;28;20025;-54
2022/08/25 11:35:17;;;;;;;8.85;4.80;;;;;;;31.11;32.91;99229.72;5059686;28;20091;-55
2022/08/25 11:38:24;;;;;;;9.57;5.10;;;;;;;31.54;32.63;99235.66;5065726;28;20451;-54
2022/08/25 11:41:01;;;;;;;12.65;4.93;;;;;;;31.94;31.33;99225.69;5065726;28;20045;-54
2022/08/25 11:43:33;;;;;;;10.57;4.78;;;;;;;32.39;31.19;99220.75;5071537;28;20035;-54
2022/08/25 11:46:18;;;;;;;10.13;4.70;;;;;;;32.07;31.31;99214.25;5070192;28;20029;-55